createdAt,value
2022-12-09T00:00:12.751Z,34.9
2022-12-09T00:05:56.758Z,34.8
2022-12-09T00:16:44.840Z,34.8
2022-12-09T00:21:53.001Z,34.8
2022-12-09T00:27:16.626Z,34.8
2022-12-09T00:32:58.021Z,34.8
2022-12-09T00:38:38.133Z,34.7
2022-12-09T00:44:18.428Z,34.7
2022-12-09T00:49:44.274Z,34.6
2022-12-09T00:55:24.252Z,34.6
2022-12-09T01:01:03.576Z,34.6
2022-12-09T01:06:45.715Z,34.6
2022-12-09T01:17:35.404Z,34.5
2022-12-09T01:23:15.941Z,34.5
2022-12-09T01:28:40.241Z,34.4
2022-12-09T01:34:05.812Z,34.4
2022-12-09T01:44:55.979Z,34.4
2022-12-09T01:50:36.249Z,34.3
2022-12-09T01:56:16.301Z,34.3
2022-12-09T02:01:58.122Z,34.3
2022-12-09T02:07:40.389Z,34.4
2022-12-09T02:13:21.321Z,34.6
2022-12-09T02:19:02.211Z,35.1
2022-12-09T02:30:08.839Z,36.3
2022-12-09T02:35:50.722Z,36.9
2022-12-09T02:41:31.203Z,37.7
2022-12-09T02:47:16.003Z,38.4
2022-12-09T02:52:58.887Z,39.1
2022-12-09T03:03:51.919Z,40.4
2022-12-09T03:09:16.786Z,40.6
2022-12-09T03:14:57.943Z,40.8
2022-12-09T03:20:40.168Z,41
2022-12-09T03:26:05.438Z,41.2
2022-12-09T03:31:47.724Z,41.3
2022-12-09T03:37:13.742Z,41.4
2022-12-09T03:48:11.553Z,41.4
2022-12-09T03:53:36.158Z,41.4
2022-12-09T03:59:02.369Z,41.4
2022-12-09T04:04:29.673Z,41.4
2022-12-09T04:10:11.633Z,41.3
2022-12-09T04:15:55.997Z,41.3
2022-12-09T04:21:38.014Z,41.3
2022-12-09T04:27:23.877Z,41.3
2022-12-09T04:33:05.972Z,41.3
2022-12-09T04:38:31.581Z,41.3
2022-12-09T04:43:46.945Z,41.1
2022-12-09T04:49:14.091Z,41.1
2022-12-09T04:55:03.153Z,41.1
2022-12-09T05:00:43.792Z,41.1
2022-12-09T05:06:31.214Z,41.1
2022-12-09T05:12:02.409Z,41.1
2022-12-09T05:17:28.266Z,41.1
2022-12-09T05:22:41.120Z,41
2022-12-09T05:28:11.151Z,40.9
2022-12-09T05:33:58.526Z,40.9
2022-12-09T05:39:53.622Z,40.9
2022-12-09T05:45:44.543Z,40.8
2022-12-09T05:51:32.350Z,40.8
2022-12-09T05:57:21.321Z,40.8
2022-12-09T06:08:06.974Z,40.7
2022-12-09T06:13:52.621Z,40.6
2022-12-09T06:19:40.831Z,40.6
2022-12-09T06:25:30.328Z,40.5
2022-12-09T06:31:14.735Z,40.4
2022-12-09T06:37:28.704Z,40.4
2022-12-09T06:43:11.710Z,40.4
2022-12-09T06:48:42.737Z,40.4
2022-12-09T06:54:25.507Z,40.3
2022-12-09T06:59:56.761Z,40
2022-12-09T07:05:46.966Z,39.8
2022-12-09T07:11:32.760Z,39.8
2022-12-09T07:17:17.593Z,39.9
2022-12-09T07:23:10.749Z,39.9
2022-12-09T07:29:00.625Z,39.9
2022-12-09T07:34:47.155Z,39.8
2022-12-09T07:40:38.155Z,39.7
2022-12-09T07:46:28.534Z,39.7
2022-12-09T07:52:03.845Z,39.6
2022-12-09T07:57:46.634Z,39.6
2022-12-09T08:03:31.349Z,39.6
2022-12-09T08:09:26.276Z,39.5
2022-12-09T08:15:18.299Z,39.3
2022-12-09T08:21:06.215Z,39.3
2022-12-09T08:26:52.085Z,39.3
2022-12-09T08:32:41.699Z,39.3
2022-12-09T08:38:26.975Z,39.2
2022-12-09T08:44:11.202Z,39.1
2022-12-09T08:49:57.356Z,39
2022-12-09T08:55:46.929Z,39
2022-12-09T09:01:28.623Z,38.9
2022-12-09T09:07:19.304Z,38.9
2022-12-09T09:13:12.162Z,38.9
2022-12-09T09:19:00.143Z,29.3
2022-12-09T09:24:46.907Z,38.6
2022-12-09T09:30:31.377Z,39.4
2022-12-09T09:36:24.990Z,40
2022-12-09T09:42:10.373Z,43.3
2022-12-09T09:53:25.373Z,48.2
2022-12-09T09:59:17.186Z,52
2022-12-09T10:05:08.212Z,53.9
2022-12-09T10:10:58.559Z,52.5
2022-12-09T10:16:55.558Z,49.4
2022-12-09T10:22:31.402Z,48.7
2022-12-09T10:28:23.326Z,47.9
2022-12-09T10:34:16.096Z,47.1
2022-12-09T10:40:04.115Z,46.4
2022-12-09T10:45:53.009Z,45.8
2022-12-09T10:52:03.064Z,45.3
2022-12-09T10:57:49.289Z,44.9
2022-12-09T11:03:40.762Z,44.4
2022-12-09T11:09:33.397Z,44.7
2022-12-09T11:15:27.957Z,44
2022-12-09T11:21:19.714Z,43.4
2022-12-09T11:27:12.195Z,43.3
2022-12-09T11:33:42.510Z,45.1
2022-12-09T11:39:29.884Z,44.3
2022-12-09T11:45:00.983Z,43.3
2022-12-09T11:51:14.903Z,42.5
2022-12-09T11:56:37.553Z,41.8
2022-12-09T12:02:22.767Z,41.3
2022-12-09T12:08:07.704Z,40.7
2022-12-09T12:13:30.326Z,38.8
2022-12-09T12:18:53.651Z,37.4
2022-12-09T12:24:17.520Z,36.7
2022-12-09T12:30:07.592Z,36.1
2022-12-09T12:36:51.501Z,35.6
2022-12-09T12:42:19.115Z,35.3
2022-12-09T12:47:57.705Z,35
2022-12-09T12:54:16.599Z,34.8
2022-12-09T12:59:56.137Z,34.5
2022-12-09T13:05:38.509Z,34.3
2022-12-09T13:11:17.123Z,34.2
2022-12-09T13:17:02.366Z,34.1
2022-12-09T13:22:40.346Z,33.9
2022-12-09T13:28:24.018Z,33.8
2022-12-09T13:33:38.290Z,33.8
2022-12-09T13:39:06.577Z,33.6
2022-12-09T13:44:45.164Z,33.5
2022-12-09T13:50:28.703Z,33.4
2022-12-09T13:56:13.599Z,33.3
2022-12-09T14:01:54.384Z,33.1
2022-12-09T14:07:05.292Z,33.1
2022-12-09T14:12:46.317Z,33
2022-12-09T14:18:24.915Z,32.9
2022-12-09T14:24:03.569Z,32.8
2022-12-09T14:29:47.775Z,32.8
2022-12-09T14:41:03.865Z,32.6
2022-12-09T14:46:42.090Z,32.6
2022-12-09T14:52:35.137Z,32.5
2022-12-09T14:58:17.687Z,32.4
2022-12-09T15:04:36.981Z,32.4
2022-12-09T15:10:00.399Z,32.3
2022-12-09T15:15:38.347Z,32.3
2022-12-09T15:21:30.990Z,32.2
2022-12-09T15:27:03.387Z,32.1
2022-12-09T15:32:41.200Z,32.1
2022-12-09T15:38:07.034Z,32.1
2022-12-09T15:43:30.364Z,32
